Terminal Aerodrome Forecast
Issued by NWS

Home | Current Version | Previous Version | Text Only | Print | Product List | Glossary On
Versions: 1 2 3 4 5 6 7 8 9 10 11 12 13 14 15 16 17 18 19 20 21
000
FTUS46 KEKA 290727 AAA
TAFCEC
TAF AMD
KCEC 290727Z 2907/3006 32008KT P6SM OVC005
     FM290900 VRB02KT 3SM BR OVC005
     FM291200 VRB03KT 1SM BR OVC003
     FM291800 26005KT 6SM BR OVC007
     FM292000 28007KT P6SM OVC015
     FM300400 VRB04KT 5SM BR OVC007=

USA.gov is the U.S. government's official web portal to all federal, state and local government web resources and services.